createdAt,value
2018-08-04T00:00:29.858Z,23.60
2018-08-04T00:01:29.803Z,23.40
2018-08-04T00:02:29.772Z,22.50
2018-08-04T00:03:29.758Z,22.80
2018-08-04T00:04:29.722Z,23.20
2018-08-04T00:05:29.690Z,22.70
2018-08-04T00:06:30.762Z,22.20
2018-08-04T00:07:29.616Z,21.30
2018-08-04T00:08:29.593Z,21.80
2018-08-04T00:09:29.550Z,21.80
2018-08-04T00:10:29.522Z,22.70
2018-08-04T00:11:29.503Z,23.40
2018-08-04T00:12:29.482Z,22.80
2018-08-04T00:13:29.441Z,23.60
2018-08-04T00:14:29.467Z,22.70
2018-08-04T00:15:29.389Z,23.10
2018-08-04T00:16:29.349Z,23.30
2018-08-04T00:17:29.402Z,23.60
2018-08-04T00:18:29.308Z,24.30
2018-08-04T00:19:29.233Z,23.30
2018-08-04T00:20:29.215Z,22.70
2018-08-04T00:21:29.175Z,23.20
2018-08-04T00:22:29.144Z,23.50
2018-08-04T00:23:29.137Z,22.40
2018-08-04T00:24:29.093Z,23.40
2018-08-04T00:25:29.053Z,22.60
2018-08-04T00:26:29.041Z,22.40
2018-08-04T00:27:29.007Z,22.00
2018-08-04T00:28:29.009Z,23.10
2018-08-04T00:29:28.938Z,24.40
2018-08-04T00:30:28.902Z,24.20
2018-08-04T00:31:28.904Z,24.90
2018-08-04T00:32:28.893Z,24.90
2018-08-04T00:33:28.804Z,24.90
2018-08-04T00:34:28.798Z,25.10
2018-08-04T00:35:28.730Z,22.80
2018-08-04T00:36:28.700Z,23.90
2018-08-04T00:37:28.720Z,23.40
2018-08-04T00:38:28.638Z,24.40
2018-08-04T00:39:28.612Z,24.50
2018-08-04T00:40:28.567Z,25.20
2018-08-04T00:41:28.534Z,24.90
2018-08-04T00:42:28.512Z,24.20
2018-08-04T00:43:28.477Z,24.50
2018-08-04T00:44:28.450Z,22.70
2018-08-04T00:45:28.457Z,24.40
2018-08-04T00:46:28.387Z,24.40
2018-08-04T00:47:28.357Z,22.10
2018-08-04T00:48:28.358Z,22.40
2018-08-04T00:49:28.299Z,22.30
2018-08-04T00:50:28.261Z,22.80
2018-08-04T00:51:28.223Z,23.70
2018-08-04T00:52:28.187Z,24.50
2018-08-04T00:53:28.187Z,25.30
2018-08-04T00:54:28.121Z,26.90
2018-08-04T00:55:28.097Z,25.90
2018-08-04T00:56:28.086Z,24.70
2018-08-04T00:57:28.044Z,25.50
2018-08-04T00:58:28.037Z,25.00
2018-08-04T00:59:27.961Z,24.50
2018-08-04T01:00:27.933Z,23.90
2018-08-04T01:01:27.916Z,24.60
2018-08-04T01:02:27.871Z,25.60
2018-08-04T01:03:27.843Z,25.10
2018-08-04T01:04:27.863Z,25.10
2018-08-04T01:05:27.786Z,25.80
2018-08-04T01:06:27.766Z,24.90
2018-08-04T01:07:27.736Z,24.80
2018-08-04T01:08:27.685Z,25.80
2018-08-04T01:09:27.651Z,26.00
2018-08-04T01:10:27.615Z,26.10
2018-08-04T01:11:27.588Z,26.60
2018-08-04T01:12:27.562Z,27.00
2018-08-04T01:13:27.514Z,26.30
2018-08-04T01:14:27.508Z,26.00
2018-08-04T01:15:27.469Z,25.30
2018-08-04T01:16:27.419Z,26.10
2018-08-04T01:17:27.399Z,28.10
2018-08-04T01:18:27.360Z,27.80
2018-08-04T01:19:27.350Z,26.40
2018-08-04T01:20:27.299Z,26.60
2018-08-04T01:21:27.274Z,26.80
2018-08-04T01:22:27.245Z,25.00
2018-08-04T01:23:27.194Z,25.60
2018-08-04T01:24:27.198Z,26.40
2018-08-04T01:25:27.152Z,26.80
2018-08-04T01:26:27.194Z,28.00
2018-08-04T01:27:27.083Z,26.70
2018-08-04T01:28:27.052Z,24.60
2018-08-04T01:29:27.036Z,26.30
2018-08-04T01:30:26.996Z,26.00
2018-08-04T01:31:26.959Z,26.30
2018-08-04T01:32:26.947Z,27.00
2018-08-04T01:33:26.880Z,26.40
2018-08-04T01:34:26.845Z,25.70
2018-08-04T01:35:26.822Z,25.30
2018-08-04T01:36:26.798Z,25.60
2018-08-04T01:37:26.756Z,26.00
2018-08-04T01:38:26.716Z,24.80
2018-08-04T01:39:26.683Z,24.80
2018-08-04T01:40:26.656Z,24.40
2018-08-04T01:41:26.631Z,26.00
2018-08-04T01:42:26.608Z,25.60
2018-08-04T01:43:26.568Z,26.90
2018-08-04T01:44:26.526Z,25.60
2018-08-04T01:45:26.506Z,25.30
2018-08-04T01:46:26.477Z,25.00
2018-08-04T01:47:26.429Z,25.70
2018-08-04T01:48:26.406Z,25.80
2018-08-04T01:49:26.365Z,25.90
2018-08-04T01:50:26.336Z,26.30
2018-08-04T01:51:26.320Z,25.90
2018-08-04T01:52:26.270Z,25.50
2018-08-04T01:53:26.241Z,26.80
2018-08-04T01:54:26.200Z,27.40
2018-08-04T01:55:26.169Z,26.90
2018-08-04T01:56:26.146Z,26.80
2018-08-04T01:57:26.118Z,26.60
2018-08-04T01:58:26.080Z,24.60
2018-08-04T01:59:26.043Z,25.50
2018-08-04T02:00:26.023Z,26.50
2018-08-04T02:01:26.086Z,28.10
2018-08-04T02:02:25.949Z,28.00
2018-08-04T02:03:25.943Z,28.20
2018-08-04T02:04:25.896Z,26.50
2018-08-04T02:05:25.860Z,26.90
2018-08-04T02:06:25.816Z,27.60
2018-08-04T02:07:25.808Z,28.00
2018-08-04T02:08:25.759Z,27.00
2018-08-04T02:09:25.721Z,26.40
2018-08-04T02:10:25.727Z,27.50
2018-08-04T02:11:25.673Z,28.00
2018-08-04T02:12:25.639Z,27.40
2018-08-04T02:13:25.586Z,27.80
2018-08-04T02:14:25.566Z,27.10
2018-08-04T02:15:25.559Z,27.60
2018-08-04T02:16:25.502Z,27.60
2018-08-04T02:17:25.477Z,27.00
2018-08-04T02:18:25.442Z,26.70
2018-08-04T02:19:25.417Z,27.20
2018-08-04T02:20:25.372Z,27.00
2018-08-04T02:21:25.358Z,27.60
2018-08-04T02:22:25.310Z,27.80
2018-08-04T02:23:25.274Z,27.10
2018-08-04T02:24:25.256Z,26.20
2018-08-04T02:25:25.211Z,25.50
2018-08-04T02:26:25.180Z,24.70
2018-08-04T02:27:25.146Z,27.90
2018-08-04T02:28:25.119Z,28.30
2018-08-04T02:29:25.076Z,28.10
2018-08-04T02:30:25.086Z,27.70
2018-08-04T02:31:25.033Z,28.80
2018-08-04T02:32:24.986Z,28.90
2018-08-04T02:33:24.950Z,29.30
2018-08-04T02:34:24.923Z,29.10
2018-08-04T02:35:24.882Z,27.10
2018-08-04T02:36:24.863Z,28.60
2018-08-04T02:37:24.829Z,29.00
2018-08-04T02:38:24.795Z,29.70
2018-08-04T02:39:24.757Z,29.40
2018-08-04T02:40:24.732Z,28.20
2018-08-04T02:41:24.707Z,28.10
2018-08-04T02:42:24.658Z,28.20
2018-08-04T02:43:24.630Z,28.10
2018-08-04T02:44:24.590Z,29.40
2018-08-04T02:45:24.559Z,27.30
2018-08-04T02:46:24.529Z,28.00
2018-08-04T02:47:24.527Z,27.70
2018-08-04T02:48:24.458Z,27.00
2018-08-04T02:49:24.428Z,27.20
2018-08-04T02:50:24.414Z,27.00
2018-08-04T02:51:24.362Z,27.60
2018-08-04T02:52:24.340Z,26.20
2018-08-04T02:53:24.296Z,26.30
2018-08-04T02:54:24.270Z,26.50
2018-08-04T02:55:24.230Z,27.00
2018-08-04T02:56:24.208Z,28.80
2018-08-04T02:57:24.179Z,28.40
2018-08-04T02:58:24.142Z,27.70
2018-08-04T02:59:24.113Z,27.10
2018-08-04T03:00:24.074Z,27.00
2018-08-04T03:01:24.045Z,27.50
2018-08-04T03:02:24.018Z,28.10
2018-08-04T03:03:24.030Z,28.10
2018-08-04T03:04:23.945Z,26.60
2018-08-04T03:05:23.953Z,26.80
2018-08-04T03:06:24.061Z,27.50
2018-08-04T03:07:23.889Z,27.10
2018-08-04T03:08:23.842Z,27.30
2018-08-04T03:09:23.799Z,26.80
2018-08-04T03:10:23.823Z,28.30
2018-08-04T03:11:23.746Z,28.10
2018-08-04T03:12:23.754Z,26.60
2018-08-04T03:13:23.700Z,26.90
2018-08-04T03:14:23.724Z,27.10
2018-08-04T03:15:23.593Z,27.30
2018-08-04T03:16:23.564Z,27.10
2018-08-04T03:17:23.576Z,26.40
2018-08-04T03:18:23.521Z,26.50
2018-08-04T03:19:23.577Z,28.10
2018-08-04T03:20:23.434Z,26.30
2018-08-04T03:21:23.478Z,26.00
2018-08-04T03:22:23.355Z,27.00
2018-08-04T03:23:23.355Z,26.90
2018-08-04T03:24:23.320Z,26.20
2018-08-04T03:25:23.272Z,25.60
2018-08-04T03:26:23.244Z,26.30
2018-08-04T03:27:23.209Z,25.50
2018-08-04T03:28:23.175Z,25.30
2018-08-04T03:29:23.136Z,25.70
2018-08-04T03:30:23.107Z,24.80
2018-08-04T03:31:23.083Z,25.00
2018-08-04T03:32:23.047Z,24.40
2018-08-04T03:33:23.010Z,25.00
2018-08-04T03:34:22.993Z,27.80
2018-08-04T03:35:22.972Z,27.50
2018-08-04T03:36:22.931Z,27.70
2018-08-04T03:37:22.893Z,27.80
2018-08-04T03:38:22.867Z,27.60
2018-08-04T03:39:22.814Z,27.50
2018-08-04T03:40:22.808Z,28.80
2018-08-04T03:41:22.835Z,28.20
2018-08-04T03:42:22.742Z,27.50
2018-08-04T03:43:22.697Z,26.40
2018-08-04T03:44:22.660Z,25.20
2018-08-04T03:45:22.646Z,25.60
2018-08-04T03:46:22.604Z,26.50
2018-08-04T03:47:22.593Z,27.90
2018-08-04T03:48:22.543Z,27.60
2018-08-04T03:49:22.495Z,27.30
2018-08-04T03:50:22.463Z,27.10
2018-08-04T03:51:22.437Z,28.10
2018-08-04T03:52:22.392Z,26.60
2018-08-04T03:53:22.368Z,25.20
2018-08-04T03:54:22.350Z,25.70
2018-08-04T03:55:22.306Z,26.20
2018-08-04T03:56:22.265Z,25.10
2018-08-04T03:57:22.240Z,26.00
2018-08-04T03:58:22.208Z,25.90
2018-08-04T03:59:22.177Z,26.20
2018-08-04T04:00:22.141Z,26.10
2018-08-04T04:01:22.119Z,27.00
2018-08-04T04:02:22.087Z,26.70
2018-08-04T04:03:22.056Z,27.00
2018-08-04T04:04:22.014Z,25.10
2018-08-04T04:05:21.988Z,25.50
2018-08-04T04:06:21.946Z,26.30
2018-08-04T04:07:21.924Z,27.10
2018-08-04T04:08:21.890Z,27.80
2018-08-04T04:09:21.871Z,26.80
2018-08-04T04:10:21.833Z,26.70
2018-08-04T04:11:21.812Z,27.00
2018-08-04T04:12:21.746Z,25.90
2018-08-04T04:13:21.728Z,25.60
2018-08-04T04:14:21.684Z,25.70
2018-08-04T04:15:21.664Z,26.90
2018-08-04T04:16:21.643Z,25.30
2018-08-04T04:17:21.593Z,25.50
2018-08-04T04:18:21.572Z,25.70
2018-08-04T04:19:21.546Z,25.70
2018-08-04T04:20:21.507Z,27.20
2018-08-04T04:21:21.503Z,25.70
2018-08-04T04:22:21.475Z,27.80
2018-08-04T04:23:21.408Z,26.00
2018-08-04T04:24:21.411Z,27.30
2018-08-04T04:25:21.471Z,27.10
2018-08-04T04:26:21.347Z,26.40
2018-08-04T04:27:21.348Z,26.70
2018-08-04T04:28:21.249Z,25.10
2018-08-04T04:29:21.232Z,23.90
2018-08-04T04:30:21.197Z,24.50
2018-08-04T04:31:21.187Z,24.10
2018-08-04T04:32:21.129Z,25.20
2018-08-04T04:33:21.084Z,24.50
2018-08-04T04:34:21.089Z,25.10
2018-08-04T04:35:21.030Z,25.70
2018-08-04T04:36:20.988Z,25.50
2018-08-04T04:37:20.968Z,25.50
2018-08-04T04:38:20.945Z,25.00
2018-08-04T04:39:20.908Z,25.30
2018-08-04T04:40:20.969Z,25.70
2018-08-04T04:41:20.874Z,25.90
2018-08-04T04:42:20.873Z,24.10
2018-08-04T04:43:20.787Z,23.70
2018-08-04T04:44:20.747Z,23.30
2018-08-04T04:45:20.767Z,24.10
2018-08-04T04:46:20.748Z,24.20
2018-08-04T04:47:20.654Z,23.80
2018-08-04T04:48:20.651Z,22.70
2018-08-04T04:49:20.654Z,22.90
2018-08-04T04:50:20.649Z,23.60
2018-08-04T04:51:20.530Z,23.60
2018-08-04T04:52:20.523Z,22.70
2018-08-04T04:53:20.497Z,22.90
2018-08-04T04:54:20.472Z,22.30
2018-08-04T04:55:20.457Z,22.20
2018-08-04T04:56:20.415Z,22.60
2018-08-04T04:57:20.369Z,22.50
2018-08-04T04:58:20.319Z,22.00
2018-08-04T04:59:20.295Z,22.40
2018-08-04T05:00:23.044Z,22.60
2018-08-04T05:01:20.231Z,22.10
2018-08-04T05:02:20.193Z,23.00
2018-08-04T05:03:20.163Z,23.20
2018-08-04T05:04:20.120Z,22.80
2018-08-04T05:05:20.102Z,22.30
2018-08-04T05:06:20.062Z,23.80
2018-08-04T05:07:20.064Z,23.60
2018-08-04T05:08:20.015Z,24.00
2018-08-04T05:09:20.058Z,23.30
2018-08-04T05:10:19.969Z,22.80
2018-08-04T05:11:19.923Z,23.30
2018-08-04T05:12:19.884Z,21.60
2018-08-04T05:13:19.931Z,21.60
2018-08-04T05:14:19.825Z,21.80
2018-08-04T05:15:19.792Z,21.70
2018-08-04T05:16:19.779Z,21.70
2018-08-04T05:17:19.732Z,22.40
2018-08-04T05:18:19.696Z,22.70
2018-08-04T05:19:19.693Z,22.20
2018-08-04T05:20:19.658Z,22.60
2018-08-04T05:21:19.665Z,21.70
2018-08-04T05:22:19.596Z,21.20
2018-08-04T05:23:19.564Z,21.30
2018-08-04T05:24:19.537Z,22.30
2018-08-04T05:25:19.562Z,20.90
2018-08-04T05:26:19.476Z,20.90
2018-08-04T05:27:19.447Z,19.50
2018-08-04T05:28:19.405Z,20.50
2018-08-04T05:29:19.381Z,20.30
2018-08-04T05:30:19.357Z,21.00
2018-08-04T05:31:19.326Z,20.90
2018-08-04T05:32:19.310Z,20.60
2018-08-04T05:33:19.274Z,18.00
2018-08-04T05:34:19.243Z,18.60
2018-08-04T05:35:19.190Z,17.90
2018-08-04T05:36:19.173Z,19.60
2018-08-04T05:37:19.191Z,20.10
2018-08-04T05:38:19.111Z,20.40
2018-08-04T05:39:19.093Z,19.40
2018-08-04T05:40:19.058Z,20.10
2018-08-04T05:41:19.031Z,20.10
2018-08-04T05:42:18.991Z,18.40
2018-08-04T05:43:19.036Z,19.10
2018-08-04T05:44:18.934Z,19.40
2018-08-04T05:45:18.928Z,18.80
2018-08-04T05:46:18.877Z,19.60
2018-08-04T05:47:18.855Z,19.10
2018-08-04T05:48:18.822Z,19.60
2018-08-04T05:49:18.785Z,19.50
2018-08-04T05:50:18.768Z,19.60
2018-08-04T05:51:18.758Z,19.50
2018-08-04T05:52:18.697Z,19.30
2018-08-04T05:53:18.697Z,18.90
2018-08-04T05:54:18.649Z,18.90
2018-08-04T05:55:18.610Z,19.80
2018-08-04T05:56:18.601Z,19.60
2018-08-04T05:57:18.555Z,19.90
2018-08-04T05:58:18.523Z,18.80
2018-08-04T05:59:18.512Z,19.90
2018-08-04T06:00:18.531Z,19.40
2018-08-04T06:01:18.473Z,20.00
2018-08-04T06:02:18.417Z,20.60
2018-08-04T06:03:18.404Z,19.30
2018-08-04T06:04:18.357Z,20.00
2018-08-04T06:05:18.325Z,18.90
2018-08-04T06:06:18.311Z,19.50
2018-08-04T06:07:18.268Z,19.00
2018-08-04T06:08:18.247Z,18.40
2018-08-04T06:09:18.192Z,19.40
2018-08-04T06:10:18.173Z,19.50
2018-08-04T06:11:18.129Z,18.90
2018-08-04T06:12:18.107Z,19.40
2018-08-04T06:13:18.108Z,19.00
2018-08-04T06:14:18.044Z,18.80
2018-08-04T06:15:18.019Z,19.30
2018-08-04T06:16:18.020Z,17.50
2018-08-04T06:17:17.961Z,17.00
2018-08-04T06:18:17.940Z,18.00
2018-08-04T06:19:17.908Z,19.30
2018-08-04T06:20:17.877Z,19.30
2018-08-04T06:21:17.854Z,20.20
2018-08-04T06:22:17.831Z,19.60
2018-08-04T06:23:17.806Z,19.90
2018-08-04T06:24:17.762Z,21.30
2018-08-04T06:25:17.742Z,20.40
2018-08-04T06:26:17.698Z,21.20
2018-08-04T06:27:17.695Z,21.50
2018-08-04T06:28:17.677Z,20.50
2018-08-04T06:29:17.619Z,18.90
2018-08-04T06:30:17.590Z,17.00
2018-08-04T06:31:17.577Z,18.20
2018-08-04T06:32:17.559Z,17.90
2018-08-04T06:33:17.527Z,19.40
2018-08-04T06:34:17.492Z,18.60
2018-08-04T06:35:17.449Z,18.70
2018-08-04T06:36:17.490Z,18.60
2018-08-04T06:37:17.399Z,17.20
2018-08-04T06:38:17.414Z,19.20
2018-08-04T06:39:17.352Z,18.80
2018-08-04T06:40:17.327Z,19.20
2018-08-04T06:41:17.285Z,18.70
2018-08-04T06:42:17.266Z,18.80
2018-08-04T06:43:17.246Z,19.60
2018-08-04T06:44:17.248Z,18.80
2018-08-04T06:45:17.178Z,19.50
2018-08-04T06:46:17.161Z,19.90
2018-08-04T06:47:17.127Z,19.50
2018-08-04T06:48:17.118Z,19.80
2018-08-04T06:49:17.073Z,19.70
2018-08-04T06:50:17.042Z,20.00
2018-08-04T06:51:17.022Z,20.10
2018-08-04T06:52:16.987Z,19.80
2018-08-04T06:53:16.959Z,19.70
2018-08-04T06:54:16.940Z,19.20
2018-08-04T06:55:16.918Z,18.50
2018-08-04T06:56:16.878Z,19.80
2018-08-04T06:57:16.856Z,19.90
2018-08-04T06:58:16.873Z,18.70
2018-08-04T06:59:16.795Z,18.30
2018-08-04T07:00:16.772Z,19.90
2018-08-04T07:01:16.746Z,16.90
2018-08-04T07:02:16.713Z,17.80
2018-08-04T07:03:16.693Z,18.90
2018-08-04T07:04:16.699Z,19.10
2018-08-04T07:05:16.697Z,18.30
2018-08-04T07:06:16.641Z,19.90
2018-08-04T07:07:16.625Z,18.10
2018-08-04T07:08:16.567Z,17.20
2018-08-04T07:09:16.540Z,18.10
2018-08-04T07:10:16.540Z,18.00
2018-08-04T07:11:16.510Z,18.20
2018-08-04T07:12:16.490Z,18.50
2018-08-04T07:13:16.471Z,17.00
2018-08-04T07:14:16.453Z,16.90
2018-08-04T07:15:16.410Z,16.80
2018-08-04T07:16:16.391Z,17.90
2018-08-04T07:17:16.361Z,16.80
2018-08-04T07:18:16.337Z,16.90
2018-08-04T07:19:16.311Z,16.40
2018-08-04T07:20:16.286Z,16.10
2018-08-04T07:21:16.278Z,15.50
2018-08-04T07:22:16.229Z,14.40
2018-08-04T07:23:16.256Z,14.60
2018-08-04T07:24:16.195Z,15.70
2018-08-04T07:25:16.182Z,14.20
2018-08-04T07:26:16.143Z,13.80
2018-08-04T07:27:16.128Z,13.50
2018-08-04T07:28:16.130Z,13.90
2018-08-04T07:29:16.126Z,13.70
2018-08-04T07:30:16.067Z,14.00
2018-08-04T07:31:16.077Z,13.20
2018-08-04T07:32:16.015Z,13.20
2018-08-04T07:33:15.992Z,14.00
2018-08-04T07:34:16.041Z,13.60
2018-08-04T07:35:15.962Z,14.20
2018-08-04T07:36:15.934Z,13.30
2018-08-04T07:37:15.918Z,13.30
2018-08-04T07:38:15.904Z,13.10
2018-08-04T07:39:15.881Z,13.80
2018-08-04T07:40:15.859Z,13.40
2018-08-04T07:41:15.831Z,13.90
2018-08-04T07:42:15.847Z,13.20
2018-08-04T07:43:15.810Z,13.80
2018-08-04T07:44:15.780Z,13.90
2018-08-04T07:45:15.764Z,13.00
2018-08-04T07:46:15.776Z,13.50
2018-08-04T07:47:15.728Z,13.50
2018-08-04T07:48:15.700Z,13.50
2018-08-04T07:49:15.716Z,13.20
2018-08-04T07:50:15.682Z,13.40
2018-08-04T07:51:15.644Z,13.30
2018-08-04T07:52:15.621Z,14.20
2018-08-04T07:53:15.626Z,13.90
2018-08-04T07:54:15.611Z,13.60
2018-08-04T07:55:15.597Z,16.10
2018-08-04T07:56:15.542Z,13.80
2018-08-04T07:57:15.554Z,14.10
2018-08-04T07:58:15.504Z,14.10
2018-08-04T07:59:15.489Z,13.50
2018-08-04T08:00:15.466Z,13.70
2018-08-04T08:01:15.466Z,12.40
2018-08-04T08:02:15.426Z,12.70
2018-08-04T08:03:15.391Z,12.80
2018-08-04T08:04:15.378Z,10.80
2018-08-04T08:05:15.360Z,11.60
2018-08-04T08:06:15.347Z,11.00
2018-08-04T08:07:15.311Z,11.20
2018-08-04T08:08:15.312Z,11.60
2018-08-04T08:09:15.265Z,9.50
2018-08-04T08:10:15.274Z,9.60
2018-08-04T08:11:15.318Z,10.10
2018-08-04T08:12:15.206Z,8.60
2018-08-04T08:13:15.333Z,9.50
2018-08-04T08:14:15.366Z,8.70
2018-08-04T08:15:15.444Z,9.00
2018-08-04T08:16:15.136Z,8.60
2018-08-04T08:17:15.132Z,8.10
2018-08-04T08:18:15.102Z,8.10
2018-08-04T08:19:15.089Z,7.70
2018-08-04T08:20:15.054Z,7.90
2018-08-04T08:21:15.061Z,7.90
2018-08-04T08:22:15.035Z,7.90
2018-08-04T08:23:15.074Z,7.60
2018-08-04T08:24:15.007Z,8.00
2018-08-04T08:25:14.967Z,8.50
2018-08-04T08:26:15.001Z,8.30
2018-08-04T08:27:14.935Z,7.60
2018-08-04T08:28:14.922Z,8.10
2018-08-04T08:29:14.911Z,8.30
2018-08-04T08:30:14.891Z,8.20
2018-08-04T08:31:14.885Z,8.60
2018-08-04T08:32:14.856Z,10.00
2018-08-04T08:33:14.866Z,11.10
2018-08-04T08:34:14.814Z,11.80
2018-08-04T08:35:14.805Z,12.40
2018-08-04T08:36:14.794Z,12.10
2018-08-04T08:37:14.789Z,12.00
2018-08-04T08:38:14.777Z,12.80
2018-08-04T08:39:14.732Z,12.90
2018-08-04T08:40:14.738Z,12.30
2018-08-04T08:41:14.740Z,12.70
2018-08-04T08:42:14.695Z,12.90
2018-08-04T08:43:14.685Z,11.80
2018-08-04T08:44:14.672Z,12.40
2018-08-04T08:45:14.654Z,12.60
2018-08-04T08:46:14.642Z,11.80
2018-08-04T08:47:14.700Z,12.10
2018-08-04T08:48:14.601Z,11.60
2018-08-04T08:49:14.582Z,12.30
2018-08-04T08:50:14.571Z,12.10
2018-08-04T08:51:14.563Z,11.80
2018-08-04T08:52:14.544Z,11.30
2018-08-04T08:53:14.685Z,11.50
2018-08-04T08:54:14.592Z,11.80
2018-08-04T08:55:14.485Z,12.00
2018-08-04T08:56:14.504Z,11.50
2018-08-04T08:57:14.465Z,11.40
2018-08-04T08:58:14.444Z,11.60
2018-08-04T08:59:14.437Z,11.30
2018-08-04T09:00:14.417Z,11.10
2018-08-04T09:01:14.418Z,11.60
2018-08-04T09:02:14.427Z,11.60
2018-08-04T09:03:14.367Z,11.80
2018-08-04T09:04:14.360Z,11.70
2018-08-04T09:05:14.346Z,11.30
2018-08-04T09:06:14.335Z,11.80
2018-08-04T09:07:14.300Z,11.20
2018-08-04T09:08:14.287Z,11.30
2018-08-04T09:09:14.266Z,11.50
2018-08-04T09:10:14.259Z,11.60
2018-08-04T09:11:14.229Z,11.40
2018-08-04T09:12:14.235Z,11.20
2018-08-04T09:13:14.198Z,11.30
2018-08-04T09:14:14.206Z,11.40
2018-08-04T09:15:14.166Z,11.40
2018-08-04T09:16:14.165Z,11.60
2018-08-04T09:17:14.170Z,11.40
2018-08-04T09:18:14.139Z,11.10
2018-08-04T09:19:14.117Z,11.50
2018-08-04T09:20:14.093Z,11.70
2018-08-04T09:21:14.076Z,11.30
2018-08-04T09:22:14.065Z,12.10
2018-08-04T09:23:14.045Z,11.80
2018-08-04T09:24:14.060Z,11.80
2018-08-04T09:25:14.026Z,10.70
2018-08-04T09:26:14.000Z,10.50
2018-08-04T09:27:13.994Z,11.10
2018-08-04T09:28:13.991Z,10.90
2018-08-04T09:29:13.975Z,10.80
2018-08-04T09:30:13.929Z,10.80
2018-08-04T09:31:13.918Z,10.90
2018-08-04T09:32:13.921Z,11.00
2018-08-04T09:33:13.916Z,11.50
2018-08-04T09:34:13.873Z,10.70
2018-08-04T09:35:13.854Z,11.60
2018-08-04T09:36:13.842Z,11.00
2018-08-04T09:37:13.857Z,11.10
2018-08-04T09:38:13.902Z,11.10
2018-08-04T09:39:13.920Z,11.20
2018-08-04T09:40:13.834Z,10.90
2018-08-04T09:41:13.786Z,11.10
2018-08-04T09:42:13.798Z,11.10
2018-08-04T09:43:13.757Z,10.90
2018-08-04T09:44:13.742Z,11.00
2018-08-04T09:45:13.717Z,10.90
2018-08-04T09:46:13.762Z,10.20
2018-08-04T09:47:13.704Z,10.10
2018-08-04T09:48:13.693Z,10.60
2018-08-04T09:49:13.701Z,10.30
2018-08-04T09:50:13.654Z,10.20
2018-08-04T09:51:13.628Z,9.70
2018-08-04T09:52:13.664Z,9.80
2018-08-04T09:53:13.600Z,9.40
2018-08-04T09:54:13.615Z,9.80
2018-08-04T09:55:13.588Z,10.20
2018-08-04T09:56:13.578Z,9.90
2018-08-04T09:57:13.585Z,10.20
2018-08-04T09:58:13.548Z,10.20
2018-08-04T09:59:13.519Z,9.60
2018-08-04T10:00:13.520Z,10.20
2018-08-04T10:01:13.546Z,9.80
2018-08-04T10:02:13.482Z,9.80
2018-08-04T10:03:13.492Z,9.60
2018-08-04T10:04:13.477Z,9.20
2018-08-04T10:05:13.517Z,9.70
2018-08-04T10:06:13.439Z,9.80
2018-08-04T10:07:13.411Z,10.10
2018-08-04T10:08:13.406Z,10.10
2018-08-04T10:09:13.382Z,9.80
2018-08-04T10:10:13.377Z,9.50
2018-08-04T10:11:13.405Z,10.20
2018-08-04T10:12:13.351Z,10.30
2018-08-04T10:13:13.326Z,10.30
2018-08-04T10:14:13.316Z,9.90
2018-08-04T10:15:13.283Z,9.80
2018-08-04T10:16:13.272Z,9.90
2018-08-04T10:17:13.260Z,9.90
2018-08-04T10:18:13.238Z,9.70
2018-08-04T10:19:13.236Z,9.70
2018-08-04T10:20:13.240Z,10.10
2018-08-04T10:21:13.208Z,9.90
2018-08-04T10:22:13.207Z,10.20
2018-08-04T10:23:13.169Z,10.00
2018-08-04T10:24:13.172Z,9.90
2018-08-04T10:25:13.139Z,9.80
2018-08-04T10:26:13.252Z,9.90
2018-08-04T10:27:13.128Z,9.80
2018-08-04T10:28:13.118Z,10.50
2018-08-04T10:29:13.089Z,10.00
2018-08-04T10:30:13.090Z,10.20
2018-08-04T10:31:13.052Z,9.50
2018-08-04T10:32:13.197Z,10.00
2018-08-04T10:33:13.042Z,9.20
2018-08-04T10:34:13.022Z,9.50
2018-08-04T10:35:13.023Z,9.30
2018-08-04T10:36:13.004Z,9.70
2018-08-04T10:37:12.963Z,10.00
2018-08-04T10:38:12.945Z,9.50
2018-08-04T10:39:12.935Z,9.10
2018-08-04T10:40:12.916Z,9.40
2018-08-04T10:41:12.887Z,9.20
2018-08-04T10:42:12.889Z,8.90
2018-08-04T10:43:12.866Z,8.50
2018-08-04T10:44:12.872Z,9.40
2018-08-04T10:45:12.868Z,8.90
2018-08-04T10:46:12.827Z,9.20
2018-08-04T10:47:12.808Z,9.10
2018-08-04T10:48:12.874Z,9.70
2018-08-04T10:49:12.801Z,9.30
2018-08-04T10:50:12.753Z,9.40
2018-08-04T10:51:12.741Z,8.70
2018-08-04T10:52:12.729Z,9.20
2018-08-04T10:53:12.725Z,8.80
2018-08-04T10:54:12.784Z,8.70
2018-08-04T10:55:12.749Z,9.50
2018-08-04T10:56:12.710Z,8.70
2018-08-04T10:57:12.670Z,9.10
2018-08-04T10:58:12.668Z,9.10
2018-08-04T10:59:12.675Z,9.40
2018-08-04T11:00:12.685Z,9.20
2018-08-04T11:01:12.620Z,9.50
2018-08-04T11:02:12.617Z,9.10
2018-08-04T11:03:12.581Z,8.90
2018-08-04T11:04:12.540Z,9.00
2018-08-04T11:05:12.583Z,9.00
2018-08-04T11:06:12.524Z,8.70
2018-08-04T11:07:12.540Z,8.80
2018-08-04T11:08:12.481Z,9.10
2018-08-04T11:09:12.475Z,8.90
2018-08-04T11:10:12.459Z,9.00
2018-08-04T11:11:12.453Z,9.20
2018-08-04T11:12:12.472Z,8.90
2018-08-04T11:13:12.415Z,8.70
2018-08-04T11:14:12.386Z,8.50
2018-08-04T11:15:12.376Z,8.50
2018-08-04T11:16:12.366Z,8.40
2018-08-04T11:17:12.379Z,8.80
2018-08-04T11:18:12.373Z,8.70
2018-08-04T11:19:12.317Z,9.00
2018-08-04T11:20:12.321Z,8.70
2018-08-04T11:21:12.310Z,8.90
2018-08-04T11:22:12.294Z,9.30
2018-08-04T11:23:12.285Z,9.90
2018-08-04T11:24:12.314Z,9.30
2018-08-04T11:25:12.254Z,9.40
2018-08-04T11:26:12.236Z,9.30
2018-08-04T11:27:12.412Z,9.30
2018-08-04T11:28:12.353Z,9.10
2018-08-04T11:29:12.198Z,9.80
2018-08-04T11:30:12.157Z,9.40
2018-08-04T11:31:12.143Z,9.20
2018-08-04T11:32:12.205Z,9.90
2018-08-04T11:33:12.178Z,9.60
2018-08-04T11:34:12.111Z,10.10
2018-08-04T11:35:12.101Z,9.50
2018-08-04T11:36:12.155Z,10.20
2018-08-04T11:37:12.099Z,9.90
2018-08-04T11:38:12.092Z,9.90
2018-08-04T11:39:12.012Z,9.50
2018-08-04T11:40:12.037Z,9.10
2018-08-04T11:41:12.007Z,9.10
2018-08-04T11:42:11.978Z,9.20
2018-08-04T11:43:11.942Z,9.50
2018-08-04T11:44:11.939Z,9.00
2018-08-04T11:45:11.916Z,9.00
2018-08-04T11:46:11.887Z,9.30
2018-08-04T11:47:11.877Z,9.50
2018-08-04T11:48:11.862Z,9.20
2018-08-04T11:49:11.871Z,8.90
2018-08-04T11:50:11.822Z,8.80
2018-08-04T11:51:11.813Z,9.40
2018-08-04T11:52:11.886Z,9.00
2018-08-04T11:53:11.788Z,9.30
2018-08-04T11:54:11.778Z,8.50
2018-08-04T11:55:11.767Z,8.50
2018-08-04T11:56:11.729Z,9.00
2018-08-04T11:57:11.725Z,9.70
2018-08-04T11:58:11.711Z,9.40
2018-08-04T11:59:11.685Z,8.60
2018-08-04T12:00:11.674Z,8.10
2018-08-04T12:01:11.653Z,8.40
2018-08-04T12:02:11.637Z,8.40
2018-08-04T12:03:11.662Z,8.20
2018-08-04T12:04:11.647Z,8.40
2018-08-04T12:05:11.757Z,8.70
2018-08-04T12:06:11.622Z,8.50
2018-08-04T12:07:11.584Z,8.10
2018-08-04T12:08:11.571Z,8.40
2018-08-04T12:09:11.591Z,7.70
2018-08-04T12:10:11.505Z,8.10
2018-08-04T12:11:11.552Z,8.70
2018-08-04T12:12:11.521Z,8.00
2018-08-04T12:13:11.512Z,8.50
2018-08-04T12:14:11.455Z,8.20
2018-08-04T12:15:11.485Z,8.20
2018-08-04T12:16:11.454Z,8.00
2018-08-04T12:17:11.405Z,8.20
2018-08-04T12:18:11.409Z,8.30
2018-08-04T12:19:11.409Z,8.20
2018-08-04T12:20:11.345Z,8.40
2018-08-04T12:21:11.325Z,8.50
2018-08-04T12:22:11.318Z,7.90
2018-08-04T12:23:11.294Z,7.90
2018-08-04T12:24:11.297Z,7.90
2018-08-04T12:25:11.277Z,7.50
2018-08-04T12:26:11.248Z,7.70
2018-08-04T12:27:11.245Z,8.20
2018-08-04T12:28:11.230Z,7.80
2018-08-04T12:29:11.209Z,8.40
2018-08-04T12:30:11.172Z,8.10
2018-08-04T12:31:11.180Z,8.70
2018-08-04T12:32:11.160Z,8.30
2018-08-04T12:33:11.170Z,8.80
2018-08-04T12:34:11.129Z,8.70
2018-08-04T12:35:11.114Z,8.50
2018-08-04T12:36:11.076Z,8.20
2018-08-04T12:37:11.060Z,8.70
2018-08-04T12:38:11.063Z,8.40
2018-08-04T12:39:11.050Z,9.00
2018-08-04T12:40:11.019Z,9.10
2018-08-04T12:41:10.995Z,7.80
2018-08-04T12:42:10.986Z,8.00
2018-08-04T12:43:10.972Z,8.50
2018-08-04T12:44:10.949Z,7.90
2018-08-04T12:45:10.935Z,8.30
2018-08-04T12:46:10.921Z,8.80
2018-08-04T12:47:10.944Z,8.00
2018-08-04T12:48:10.926Z,8.20
2018-08-04T12:49:10.871Z,8.50
2018-08-04T12:50:10.889Z,8.30
2018-08-04T12:51:10.849Z,7.40
2018-08-04T12:52:10.820Z,8.10
2018-08-04T12:53:10.845Z,8.00
2018-08-04T12:54:10.781Z,8.00
2018-08-04T12:55:10.791Z,7.50
2018-08-04T12:56:10.743Z,7.60
2018-08-04T12:57:10.726Z,7.50
2018-08-04T12:58:10.806Z,7.20